Time;durP1;ratioP1;P1;durP2;ratioP2;P2;SDS_P1;SDS_P2;PMS_P1;PMS_P2;Temp;Humidity;BMP_temperature;BMP_pressure;BME280_temperature;BME280_humidity;BME280_pressure;Samples;Min_cycle;Max_cycle;Signal;HPM_P1;HPM_P2
2021/09/13 00:00:56;;;;;;;;;;;12.20;99.90;;;;;;5083289;28;20028;-62
2021/09/13 00:03:21;;;;;;;13.93;6.88;;;12.30;99.90;;;;;;5082731;28;19928;-60
2021/09/13 00:05:47;;;;;;;;;;;12.30;99.90;;;;;;5075353;28;20425;-61
2021/09/13 00:08:12;;;;;;;8.73;4.90;;;12.20;99.90;;;;;;5081892;28;19978;-60
2021/09/13 00:10:38;;;;;;;;;;;12.20;99.90;;;;;;5083034;28;20042;-62
2021/09/13 00:13:03;;;;;;;12.77;5.13;;;12.30;99.90;;;;;;5081778;28;19923;-61
2021/09/13 00:15:29;;;;;;;;;;;12.30;99.90;;;;;;5082371;28;20032;-62
2021/09/13 00:17:54;;;;;;;13.68;5.97;;;12.20;99.90;;;;;;5074850;28;19921;-62
2021/09/13 00:20:20;;;;;;;;;;;12.20;99.90;;;;;;5069202;28;20037;-61
2021/09/13 00:22:46;;;;;;;11.23;5.60;;;12.20;99.90;;;;;;5068907;28;19923;-61
2021/09/13 00:25:11;;;;;;;;;;;12.10;99.90;;;;;;5069404;28;20040;-61
2021/09/13 00:27:37;;;;;;;9.85;6.03;;;12.20;99.90;;;;;;5067901;28;20026;-61
2021/09/13 00:30:03;;;;;;;;;;;12.10;99.90;;;;;;5069462;28;20036;-61
2021/09/13 00:32:28;;;;;;;11.05;5.78;;;12.10;99.90;;;;;;5047745;28;19916;-61
2021/09/13 00:34:53;;;;;;;;;;;12.10;99.90;;;;;;5049549;28;20072;-62
2021/09/13 00:37:19;;;;;;;9.35;5.50;;;12.20;99.90;;;;;;5048501;28;19995;-62
2021/09/13 00:39:44;;;;;;;;;;;12.10;99.90;;;;;;5048994;28;20037;-61
2021/09/13 00:42:10;;;;;;;14.48;5.85;;;12.10;99.90;;;;;;5047724;28;20369;-61
2021/09/13 00:44:35;;;;;;;;;;;12.10;99.90;;;;;;5049035;28;20033;-62
2021/09/13 00:47:01;;;;;;;10.80;5.78;;;12.10;99.90;;;;;;5047753;28;20321;-62
2021/09/13 00:49:27;;;;;;;;;;;12.10;99.90;;;;;;5045574;28;20069;-62
2021/09/13 00:51:52;;;;;;;8.88;5.78;;;12.10;99.90;;;;;;5040277;28;19923;-61
2021/09/13 00:54:18;;;;;;;;;;;12.10;99.90;;;;;;5049414;28;20044;-61
2021/09/13 00:56:44;;;;;;;9.85;5.22;;;12.00;99.90;;;;;;5047457;28;19952;-61
2021/09/13 00:59:11;;;;;;;13.02;6.63;;;12.00;99.90;;;;;;5048588;28;20061;-61
2021/09/13 01:01:36;;;;;;;9.20;6.47;;;12.00;99.90;;;;;;5058009;28;20043;-61
2021/09/13 01:04:02;;;;;;;;;;;12.00;99.90;;;;;;5068536;28;20049;-61
2021/09/13 01:06:28;;;;;;;12.85;6.43;;;12.10;99.90;;;;;;5067745;28;20019;-61
2021/09/13 01:08:53;;;;;;;;;;;12.10;99.90;;;;;;5068178;28;20040;-61
2021/09/13 01:11:19;;;;;;;13.35;5.90;;;12.10;99.90;;;;;;5067946;28;19986;-62
2021/09/13 01:13:45;;;;;;;12.50;6.95;;;12.10;99.90;;;;;;5068117;28;20041;-61
2021/09/13 01:16:11;;;;;;;;;;;12.10;99.90;;;;;;5068091;28;20051;-60
2021/09/13 01:18:36;;;;;;;15.35;6.57;;;12.10;99.90;;;;;;5067785;28;20559;-61
2021/09/13 01:21:02;;;;;;;;;;;12.10;99.90;;;;;;5068177;28;20101;-61
2021/09/13 01:23:36;;;;;;;9.85;6.50;;;12.10;99.90;;;;;;5066877;28;19999;-61
2021/09/13 01:26:03;;;;;;;10.45;6.03;;;12.20;99.90;;;;;;5067255;28;20036;-61
2021/09/13 01:28:29;;;;;;;13.00;6.65;;;12.20;99.90;;;;;;5067316;28;20052;-61
2021/09/13 01:30:55;;;;;;;;;;;12.20;99.90;;;;;;5066454;28;20037;-62
2021/09/13 01:33:22;;;;;;;11.13;6.65;;;12.20;99.90;;;;;;5067320;28;19924;-62
2021/09/13 01:35:48;;;;;;;12.55;6.28;;;12.10;99.90;;;;;;5059918;28;20120;-62
2021/09/13 01:38:14;;;;;;;;;;;12.10;99.90;;;;;;5067370;28;20119;-61
2021/09/13 01:40:40;;;;;;;15.15;6.20;;;12.10;99.90;;;;;;5066723;28;19917;-61
2021/09/13 01:43:05;;;;;;;;;;;12.20;99.90;;;;;;5068202;28;20037;-61
2021/09/13 01:45:31;;;;;;;9.77;5.70;;;12.20;99.90;;;;;;5067109;28;19927;-61
2021/09/13 01:47:56;;;;;;;;;;;12.20;99.90;;;;;;5067998;28;20455;-62
2021/09/13 01:50:22;;;;;;;17.38;5.97;;;12.20;99.90;;;;;;5066849;28;20380;-61
2021/09/13 01:52:48;;;;;;;;;;;12.20;99.90;;;;;;5067808;28;20044;-61
2021/09/13 01:55:14;;;;;;;14.85;6.43;;;12.20;99.90;;;;;;5067204;28;20390;-61
2021/09/13 01:57:39;;;;;;;;;;;12.20;99.90;;;;;;5067809;28;20051;-62
2021/09/13 02:00:06;;;;;;;11.95;6.20;;;12.20;99.90;;;;;;5066339;28;19939;-62
2021/09/13 02:02:32;;;;;;;16.85;6.85;;;12.20;99.90;;;;;;5066020;28;20078;-60
2021/09/13 02:04:57;;;;;;;;;;;12.20;99.90;;;;;;5067550;28;20071;-61
2021/09/13 02:07:23;;;;;;;12.40;5.55;;;12.20;99.90;;;;;;5057943;28;19943;-62
2021/09/13 02:09:52;;;;;;;;;;;12.30;99.90;;;;;;5066369;28;20492;-62
2021/09/13 02:12:21;;;;;;;12.45;6.72;;;12.30;99.90;;;;;;5065097;28;19916;-61
2021/09/13 02:14:48;;;;;;;17.67;7.15;;;12.30;99.90;;;;;;5066862;28;20068;-61
2021/09/13 02:17:14;;;;;;;11.73;7.53;;;12.40;99.90;;;;;;5066597;28;20101;-61
2021/09/13 02:19:40;;;;;;;11.57;6.63;;;12.40;99.90;;;;;;5066673;28;20036;-61
2021/09/13 02:22:06;;;;;;;;;;;12.30;99.90;;;;;;5067129;28;20567;-61
2021/09/13 02:24:31;;;;;;;13.02;6.70;;;12.40;99.90;;;;;;5065913;28;19969;-60
2021/09/13 02:26:58;;;;;;;;;;;12.20;99.90;;;;;;5066771;28;20045;-60
2021/09/13 02:29:23;;;;;;;12.83;6.60;;;12.20;99.90;;;;;;5066981;28;19923;-60
2021/09/13 02:31:49;;;;;;;;;;;12.10;99.90;;;;;;5066395;28;20036;-61
2021/09/13 02:34:14;;;;;;;15.00;7.25;;;12.20;99.90;;;;;;5066943;28;19998;-61
2021/09/13 02:36:40;;;;;;;;;;;12.20;99.90;;;;;;5066748;28;20055;-61
2021/09/13 02:39:09;;;;;;;14.98;7.60;;;12.20;99.90;;;;;;5065518;28;19922;-61
2021/09/13 02:41:34;;;;;;;13.40;7.75;;;12.10;99.90;;;;;;5066024;28;20174;-61
2021/09/13 02:44:00;;;;;;;;;;;12.10;99.90;;;;;;5062360;28;20559;-60
2021/09/13 02:46:26;;;;;;;14.07;8.20;;;12.10;99.90;;;;;;5065809;28;20424;-61
2021/09/13 02:48:51;;;;;;;;;;;12.00;99.90;;;;;;5066208;28;20072;-60
2021/09/13 02:51:17;;;;;;;13.38;8.40;;;12.00;99.90;;;;;;5067110;28;20446;-61
2021/09/13 02:53:42;;;;;;;;;;;12.00;99.90;;;;;;5066281;28;20436;-61
2021/09/13 02:56:08;;;;;;;14.23;8.48;;;12.00;99.90;;;;;;5063978;28;20015;-61
2021/09/13 02:58:33;;;;;;;;;;;12.00;99.90;;;;;;5066208;28;20037;-61
2021/09/13 03:00:59;;;;;;;16.42;7.22;;;11.80;99.90;;;;;;5065430;28;19916;-60
2021/09/13 03:03:24;;;;;;;;;;;11.80;99.90;;;;;;5066304;28;20552;-61
2021/09/13 03:05:51;;;;;;;17.65;8.23;;;11.80;99.90;;;;;;5065372;28;20400;-61
2021/09/13 03:08:17;;;;;;;14.30;8.15;;;11.80;99.90;;;;;;5065389;28;20435;-60
2021/09/13 03:10:42;;;;;;;;;;;11.80;99.90;;;;;;5080913;28;20044;-62
2021/09/13 03:13:08;;;;;;;14.40;7.45;;;11.80;99.90;;;;;;5066158;28;19920;-60
2021/09/13 03:15:34;;;;;;;13.10;7.65;;;11.90;99.90;;;;;;5066171;28;20070;-61
2021/09/13 03:17:59;;;;;;;;;;;11.90;99.90;;;;;;5080538;28;20400;-60
2021/09/13 03:20:25;;;;;;;12.15;6.93;;;11.80;99.90;;;;;;5066641;28;19923;-61
2021/09/13 03:22:50;;;;;;;;;;;11.80;99.90;;;;;;5064537;28;20135;-61
2021/09/13 03:25:16;;;;;;;18.73;8.38;;;11.80;99.90;;;;;;5065192;28;19921;-61
2021/09/13 03:27:41;;;;;;;;;;;11.90;99.90;;;;;;5067181;28;20423;-61
2021/09/13 03:30:08;;;;;;;13.05;7.47;;;11.80;99.90;;;;;;5066183;28;20269;-61
2021/09/13 03:32:34;;;;;;;12.55;8.23;;;11.80;99.90;;;;;;5046484;28;20051;-60
2021/09/13 03:34:59;;;;;;;;;;;11.90;99.90;;;;;;5046814;28;20041;-60
2021/09/13 03:37:25;;;;;;;16.25;6.88;;;11.90;99.90;;;;;;5045868;28;19921;-61
2021/09/13 03:39:50;;;;;;;;;;;11.90;99.90;;;;;;5046127;28;20124;-61
2021/09/13 03:42:16;;;;;;;18.40;7.93;;;11.80;99.90;;;;;;5043159;28;19917;-61
2021/09/13 03:44:42;;;;;;;;;;;11.90;99.90;;;;;;5047371;28;20045;-61
2021/09/13 03:47:07;;;;;;;58.63;27.25;;;11.90;99.90;;;;;;5048188;28;19921;-60
2021/09/13 03:49:33;;;;;;;;;;;12.00;99.90;;;;;;5046577;28;20037;-61
2021/09/13 03:51:58;;;;;;;16.88;8.93;;;12.00;99.90;;;;;;5046330;28;19916;-61
2021/09/13 03:54:24;;;;;;;;;;;12.00;99.90;;;;;;5050036;28;20041;-61
2021/09/13 03:56:50;;;;;;;29.15;18.00;;;12.00;99.90;;;;;;5049615;28;19970;-60
2021/09/13 03:59:15;;;;;;;;;;;12.10;99.90;;;;;;5058424;28;20068;-61
2021/09/13 04:01:41;;;;;;;31.15;17.08;;;12.10;99.90;;;;;;5048883;28;20249;-61
2021/09/13 04:04:07;;;;;;;;;;;12.20;99.90;;;;;;5056433;28;20036;-60
2021/09/13 04:11:49;;;;;;;21.90;11.32;;;12.10;99.90;;;;;;5069693;28;19970;-60
2021/09/13 04:14:15;;;;;;;19.67;8.98;;;12.20;99.90;;;;;;5070807;28;20048;-60
2021/09/13 04:16:42;;;;;;;14.32;8.45;;;12.10;99.90;;;;;;5068930;28;20478;-61
2021/09/13 04:19:09;;;;;;;16.08;9.55;;;12.20;99.90;;;;;;5069805;28;20051;-61
2021/09/13 04:21:34;;;;;;;17.50;8.43;;;12.20;99.90;;;;;;5069720;28;20040;-61
2021/09/13 04:24:00;;;;;;;;;;;12.30;99.90;;;;;;5057977;28;20052;-61
2021/09/13 04:26:25;;;;;;;20.85;9.65;;;12.30;99.90;;;;;;5049759;28;19920;-60
2021/09/13 04:28:51;;;;;;;;;;;12.30;99.90;;;;;;5049321;28;20548;-61
2021/09/13 04:31:17;;;;;;;18.13;9.93;;;12.40;99.90;;;;;;5049180;28;19916;-60
2021/09/13 04:33:42;;;;;;;;;;;12.40;99.90;;;;;;5053318;28;20044;-61
2021/09/13 04:36:08;;;;;;;17.95;11.30;;;12.40;99.90;;;;;;5067467;28;19913;-58
2021/09/13 04:38:34;;;;;;;26.02;11.88;;;12.40;99.90;;;;;;5037619;28;20049;-61
2021/09/13 04:41:00;;;;;;;;;;;12.50;99.90;;;;;;5065021;28;20043;-63
2021/09/13 04:43:26;;;;;;;21.45;10.93;;;12.50;99.90;;;;;;5052358;28;19920;-62
2021/09/13 04:45:51;;;;;;;;;;;12.50;99.90;;;;;;5068653;28;20065;-61
2021/09/13 04:48:17;;;;;;;36.53;19.45;;;12.50;99.90;;;;;;5062749;28;19916;-62
2021/09/13 04:50:42;;;;;;;;;;;12.60;99.90;;;;;;5040491;28;20032;-62
2021/09/13 04:53:08;;;;;;;24.75;11.60;;;12.60;99.90;;;;;;5058929;28;19971;-62
2021/09/13 04:55:35;;;;;;;;;;;12.60;99.90;;;;;;5059938;28;20045;-61
2021/09/13 04:58:01;;;;;;;19.42;11.68;;;12.70;99.90;;;;;;5062255;28;19911;-62
2021/09/13 05:00:27;;;;;;;30.13;12.07;;;12.70;99.90;;;;;;5054164;28;20049;-62
2021/09/13 05:02:52;;;;;;;;;;;12.70;99.90;;;;;;5064762;28;20086;-63
2021/09/13 05:05:18;;;;;;;24.27;12.10;;;12.70;99.90;;;;;;5065805;28;19962;-62
2021/09/13 05:07:44;;;;;;;;;;;12.80;99.90;;;;;;5042696;28;20028;-62
2021/09/13 05:10:10;;;;;;;36.70;18.77;;;12.80;99.90;;;;;;5061222;28;19925;-62
2021/09/13 05:12:36;;;;;;;;;;;12.90;99.90;;;;;;5060246;28;20028;-63
2021/09/13 05:15:02;;;;;;;48.47;20.92;;;12.90;99.90;;;;;;5059969;28;19916;-63
2021/09/13 05:17:27;;;;;;;;;;;12.90;99.90;;;;;;5057561;28;20075;-63
2021/09/13 05:19:54;;;;;;;38.70;19.83;;;12.90;99.90;;;;;;5055556;28;19917;-62
2021/09/13 05:22:20;;;;;;;31.67;16.67;;;13.00;99.90;;;;;;5056047;28;20051;-62
2021/09/13 05:24:46;;;;;;;;;;;13.00;99.90;;;;;;5059970;28;20048;-64
2021/09/13 05:27:11;;;;;;;27.55;16.20;;;13.00;99.90;;;;;;5057137;28;19944;-62
2021/09/13 05:29:37;;;;;;;;;;;13.00;99.90;;;;;;5055536;28;20035;-63
2021/09/13 05:32:03;;;;;;;25.90;14.43;;;12.90;99.90;;;;;;5056947;28;19956;-63
2021/09/13 05:34:29;;;;;;;40.95;22.58;;;12.90;99.90;;;;;;5060390;28;20193;-63
2021/09/13 05:36:55;;;;;;;;;;;12.90;99.90;;;;;;5062148;28;20041;-62
2021/09/13 05:39:21;;;;;;;56.22;29.20;;;12.90;99.90;;;;;;5060154;28;19923;-62
2021/09/13 05:41:47;;;;;;;;;;;12.90;99.90;;;;;;5058427;28;20036;-62
2021/09/13 05:44:12;;;;;;;39.15;20.10;;;13.00;99.90;;;;;;5061396;28;20281;-62
2021/09/13 05:46:39;;;;;;;32.65;18.70;;;12.90;99.90;;;;;;5054970;28;20052;-62
2021/09/13 05:49:09;;;;;;;31.65;19.10;;;12.90;99.90;;;;;;5059140;28;20037;-62
2021/09/13 05:51:39;;;;;;;47.63;26.75;;;13.00;99.90;;;;;;5039175;28;20555;-62
2021/09/13 05:54:05;;;;;;;52.95;26.38;;;13.10;99.90;;;;;;5058178;28;20076;-63
2021/09/13 05:56:31;;;;;;;;;;;13.10;99.90;;;;;;5041811;28;20048;-62
2021/09/13 05:58:58;;;;;;;41.00;20.73;;;13.10;99.90;;;;;;5020349;28;19917;-63
2021/09/13 06:01:24;;;;;;;38.05;19.83;;;13.10;99.90;;;;;;5045929;28;20054;-62
2021/09/13 06:03:50;;;;;;;42.25;22.48;;;13.20;99.90;;;;;;5053137;28;20155;-62
2021/09/13 06:06:16;;;;;;;;;;;13.20;99.90;;;;;;5063880;28;20135;-62
2021/09/13 06:08:41;;;;;;;37.70;20.73;;;13.30;99.90;;;;;;5053348;28;19916;-62
2021/09/13 06:11:07;;;;;;;;;;;13.30;99.90;;;;;;5050599;28;20071;-62
2021/09/13 06:13:32;;;;;;;38.15;18.08;;;13.40;99.90;;;;;;5047403;28;19982;-62
2021/09/13 06:15:58;;;;;;;;;;;13.30;99.90;;;;;;5046540;28;20598;-62
2021/09/13 06:18:23;;;;;;;35.67;20.45;;;13.30;99.90;;;;;;5047152;28;19920;-62
2021/09/13 06:20:49;;;;;;;;;;;13.30;99.90;;;;;;5047865;28;20728;-61
2021/09/13 06:23:15;;;;;;;36.90;19.67;;;13.40;99.90;;;;;;5046890;28;19924;-63
2021/09/13 06:25:40;;;;;;;;;;;13.40;99.90;;;;;;5048450;28;20090;-63
2021/09/13 06:28:06;;;;;;;34.88;20.08;;;13.40;99.90;;;;;;5049994;28;19924;-65
2021/09/13 06:30:32;;;;;;;41.67;23.50;;;13.40;99.90;;;;;;5061388;28;20032;-63
2021/09/13 06:32:57;;;;;;;;;;;13.40;99.90;;;;;;5055091;28;20033;-63
2021/09/13 06:35:23;;;;;;;37.33;21.20;;;13.40;99.90;;;;;;5062901;28;19938;-63
2021/09/13 06:37:48;;;;;;;;;;;13.50;99.90;;;;;;5059037;28;20186;-61
2021/09/13 06:40:14;;;;;;;34.45;20.88;;;13.60;99.90;;;;;;5066891;28;19954;-62
2021/09/13 06:42:40;;;;;;;34.25;22.38;;;13.60;99.90;;;;;;5067686;28;20037;-63
2021/09/13 06:45:10;;;;;;;;;;;13.60;99.90;;;;;;5067493;28;20080;-60
2021/09/13 06:47:45;;;;;;;34.17;19.05;;;13.70;99.90;;;;;;5064859;28;20404;-61
2021/09/13 06:50:26;;;;;;;36.70;20.45;;;13.70;99.90;;;;;;5067007;28;20093;-61
2021/09/13 06:52:54;;;;;;;33.03;20.20;;;13.80;99.90;;;;;;5066292;28;20037;-61
2021/09/13 06:55:20;;;;;;;30.95;18.80;;;13.80;99.90;;;;;;5066872;28;20040;-61
2021/09/13 06:57:45;;;;;;;;;;;14.00;99.90;;;;;;5066633;28;20037;-62
2021/09/13 07:00:14;;;;;;;34.05;19.60;;;14.00;99.90;;;;;;5066627;28;19916;-62
2021/09/13 07:02:41;;;;;;;34.17;20.23;;;14.20;99.90;;;;;;5066081;28;20159;-62
2021/09/13 07:05:08;;;;;;;35.92;21.10;;;14.30;99.90;;;;;;5067912;28;20041;-62
2021/09/13 07:07:35;;;;;;;34.88;19.92;;;14.30;99.90;;;;;;5068738;28;20040;-61
2021/09/13 07:10:06;;;;;;;35.63;19.23;;;14.40;99.90;;;;;;5070144;28;20102;-62
2021/09/13 07:12:32;;;;;;;39.85;23.10;;;14.40;99.90;;;;;;5066614;28;20210;-62
2021/09/13 07:14:57;;;;;;;31.83;19.65;;;14.50;99.90;;;;;;5066996;28;20102;-62
2021/09/13 07:17:23;;;;;;;;;;;14.60;99.90;;;;;;5064735;28;20507;-61
2021/09/13 07:19:51;;;;;;;27.85;16.95;;;14.60;99.90;;;;;;5066810;28;19919;-62
2021/09/13 07:22:16;;;;;;;29.40;16.98;;;14.60;99.90;;;;;;5066748;28;20116;-60
2021/09/13 07:24:43;;;;;;;;;;;14.70;99.90;;;;;;5069222;28;20075;-61
2021/09/13 07:27:10;;;;;;;31.23;16.63;;;14.80;99.90;;;;;;5065177;28;19924;-62
2021/09/13 07:29:36;;;;;;;28.00;15.32;;;14.70;99.90;;;;;;5070865;28;20070;-62
2021/09/13 07:32:02;;;;;;;;;;;14.70;99.90;;;;;;5070093;28;20048;-62
2021/09/13 07:34:28;;;;;;;26.10;16.30;;;14.70;99.90;;;;;;5070031;28;19963;-62
2021/09/13 07:36:55;;;;;;;23.33;13.63;;;14.70;99.90;;;;;;5070483;28;21004;-61
2021/09/13 07:39:22;;;;;;;25.50;15.88;;;14.70;99.90;;;;;;5069275;28;20049;-62
2021/09/13 07:41:47;;;;;;;29.73;16.77;;;14.70;99.90;;;;;;5069882;28;20045;-62
2021/09/13 07:44:13;;;;;;;;;;;14.70;99.90;;;;;;5070771;28;20048;-62
2021/09/13 07:46:39;;;;;;;34.65;20.90;;;14.70;99.90;;;;;;5069336;28;19920;-62
2021/09/13 07:49:04;;;;;;;;;;;14.70;99.90;;;;;;5070622;28;20047;-62
2021/09/13 07:51:30;;;;;;;30.35;16.60;;;14.70;99.90;;;;;;5070744;28;20388;-62
2021/09/13 07:53:55;;;;;;;;;;;14.70;99.90;;;;;;5070300;28;20284;-62
2021/09/13 07:56:21;;;;;;;30.38;16.08;;;14.70;99.90;;;;;;5070053;28;19920;-62
2021/09/13 07:58:46;;;;;;;;;;;14.80;99.90;;;;;;5069623;28;20546;-62
2021/09/13 08:01:12;;;;;;;26.20;15.50;;;14.80;99.90;;;;;;5069543;28;19966;-62
2021/09/13 08:03:38;;;;;;;;;;;15.00;99.90;;;;;;5067970;28;20040;-62
2021/09/13 08:06:04;;;;;;;25.08;15.45;;;15.10;99.90;;;;;;5064486;28;19927;-61
2021/09/13 08:08:29;;;;;;;;;;;15.10;99.90;;;;;;5063670;28;20068;-62
2021/09/13 08:10:55;;;;;;;27.98;15.43;;;15.30;99.90;;;;;;5056500;28;19959;-61
2021/09/13 08:13:20;;;;;;;;;;;15.30;99.90;;;;;;5063449;28;20037;-62
2021/09/13 08:15:46;;;;;;;19.15;12.00;;;15.40;99.90;;;;;;5067439;28;19940;-62
2021/09/13 08:18:12;;;;;;;;;;;15.80;99.90;;;;;;5071218;28;20051;-63
2021/09/13 08:20:38;;;;;;;23.90;12.43;;;16.60;99.90;;;;;;5068395;28;19916;-62
2021/09/13 08:23:03;;;;;;;;;;;17.00;99.90;;;;;;5061692;28;20119;-62
2021/09/13 08:25:29;;;;;;;22.05;13.35;;;17.20;99.90;;;;;;5067797;28;19994;-62
2021/09/13 08:27:55;;;;;;;22.08;13.20;;;17.20;99.90;;;;;;5067456;28;20089;-62
2021/09/13 08:30:20;;;;;;;20.02;13.07;;;17.00;99.90;;;;;;5068424;28;20033;-62
2021/09/13 08:32:46;;;;;;;;;;;16.70;99.90;;;;;;5069582;28;20607;-61
2021/09/13 08:35:11;;;;;;;21.85;12.18;;;16.20;99.90;;;;;;5069437;28;19923;-62
2021/09/13 08:37:37;;;;;;;;;;;16.10;99.90;;;;;;5068957;28;20040;-62
2021/09/13 08:40:04;;;;;;;20.17;12.88;;;16.00;99.90;;;;;;5068197;28;19949;-62
2021/09/13 08:42:34;;;;;;;18.58;11.95;;;16.00;99.90;;;;;;5069163;28;20040;-62
2021/09/13 08:45:01;;;;;;;31.00;12.55;;;15.80;99.90;;;;;;5065260;28;20041;-62
2021/09/13 08:47:34;;;;;;;18.85;10.82;;;15.90;99.90;;;;;;5058412;28;20052;-62
2021/09/13 08:50:22;;;;;;;16.08;10.07;;;16.00;99.90;;;;;;5068661;28;20072;-62
2021/09/13 08:52:49;;;;;;;18.05;10.25;;;16.10;99.90;;;;;;5060682;28;20439;-62
2021/09/13 08:55:15;;;;;;;15.38;8.35;;;16.00;99.90;;;;;;5068228;28;20425;-62
2021/09/13 08:57:41;;;;;;;;;;;16.20;99.90;;;;;;5069537;28;20043;-62
2021/09/13 09:00:08;;;;;;;12.43;8.90;;;16.30;99.90;;;;;;5068513;28;19927;-62
2021/09/13 09:02:33;;;;;;;12.70;8.90;;;16.40;99.90;;;;;;5085549;28;20044;-62
2021/09/13 09:05:01;;;;;;;;;;;16.50;99.90;;;;;;5075810;28;20040;-61
2021/09/13 09:07:28;;;;;;;14.82;8.15;;;16.40;99.90;;;;;;5068924;28;20019;-62
2021/09/13 09:10:11;;;;;;;14.25;8.50;;;16.50;99.90;;;;;;5067451;28;20143;-62
2021/09/13 09:13:02;;;;;;;16.45;7.40;;;16.60;99.90;;;;;;5064348;28;20041;-62
2021/09/13 09:15:30;;;;;;;14.90;7.63;;;16.80;99.90;;;;;;5049238;28;20090;-62
2021/09/13 09:17:58;;;;;;;11.73;7.07;;;16.90;99.90;;;;;;5047483;28;20036;-63
2021/09/13 09:20:25;;;;;;;10.05;7.05;;;16.90;99.90;;;;;;5051062;28;20101;-62
2021/09/13 09:23:02;;;;;;;18.35;7.70;;;17.00;99.90;;;;;;5062476;28;20044;-62
2021/09/13 09:25:35;;;;;;;9.60;6.90;;;17.20;99.90;;;;;;5067639;28;20097;-62
2021/09/13 09:28:10;;;;;;;14.75;10.02;;;17.30;99.90;;;;;;5068781;28;20113;-62
2021/09/13 09:30:48;;;;;;;10.45;7.68;;;17.50;99.90;;;;;;5068060;28;20092;-62
2021/09/13 09:33:16;;;;;;;7.80;5.50;;;17.60;99.30;;;;;;5067020;28;20182;-60
2021/09/13 09:35:43;;;;;;;10.40;5.72;;;17.60;99.90;;;;;;5067880;28;20040;-62
2021/09/13 09:38:26;;;;;;;8.82;5.63;;;17.50;99.30;;;;;;5067883;28;20048;-62
2021/09/13 09:41:11;;;;;;;7.53;5.40;;;17.50;99.90;;;;;;5068301;28;20036;-62
2021/09/13 09:43:57;;;;;;;6.70;4.03;;;17.50;99.90;;;;;;5065514;28;20036;-63
2021/09/13 09:46:24;;;;;;;7.03;4.28;;;17.50;98.60;;;;;;5066614;28;20405;-65
2021/09/13 09:49:02;;;;;;;12.23;6.88;;;17.60;99.30;;;;;;5067659;28;20045;-63
2021/09/13 09:51:33;;;;;;;5.68;3.50;;;17.70;99.30;;;;;;5066558;28;20037;-63
2021/09/13 09:54:09;;;;;;;3.28;2.88;;;17.90;98.90;;;;;;5067227;28;20411;-63
2021/09/13 09:56:34;;;;;;;3.80;3.00;;;17.90;96.30;;;;;;5068043;28;20051;-63
2021/09/13 09:59:03;;;;;;;4.88;3.47;;;17.80;98.20;;;;;;5065981;28;20041;-63
2021/09/13 10:01:34;;;;;;;4.90;3.47;;;17.90;98.30;;;;;;5064787;28;20120;-63
2021/09/13 10:04:20;;;;;;;5.93;3.38;;;17.90;98.70;;;;;;5066983;28;20036;-63
2021/09/13 10:07:00;;;;;;;8.65;3.13;;;17.80;96.70;;;;;;5059116;28;20047;-63
2021/09/13 10:09:29;;;;;;;5.53;3.95;;;17.80;96.40;;;;;;5061810;28;20052;-63
2021/09/13 10:11:57;;;;;;;6.90;4.25;;;17.70;96.80;;;;;;5066935;28;20071;-63
2021/09/13 10:14:26;;;;;;;6.18;3.90;;;17.80;99.00;;;;;;5067827;28;20040;-63
2021/09/13 10:16:55;;;;;;;5.85;3.70;;;18.00;99.10;;;;;;5065820;28;20044;-61
2021/09/13 10:19:23;;;;;;;8.07;3.65;;;18.20;98.40;;;;;;5058756;28;20048;-61
2021/09/13 10:21:50;;;;;;;4.30;3.22;;;18.20;97.20;;;;;;5065267;28;20615;-61
2021/09/13 10:24:22;;;;;;;8.10;4.65;;;18.30;97.70;;;;;;5063620;28;20028;-61
2021/09/13 10:26:54;;;;;;;17.02;4.07;;;18.30;97.90;;;;;;5055560;28;20549;-60
2021/09/13 10:29:25;;;;;;;7.70;4.15;;;18.50;97.40;;;;;;5057543;28;20114;-61
2021/09/13 10:31:51;;;;;;;6.65;3.55;;;18.60;98.60;;;;;;5056284;28;20381;-61
2021/09/13 10:34:17;;;;;;;;;;;18.60;97.60;;;;;;5060916;28;20039;-62
2021/09/13 10:37:03;;;;;;;5.63;3.92;;;18.80;96.40;;;;;;5057142;28;19924;-63
2021/09/13 10:39:47;;;;;;;6.22;3.70;;;18.90;96.90;;;;;;5065340;28;20679;-62
2021/09/13 10:42:34;;;;;;;4.22;3.22;;;18.80;97.20;;;;;;5066313;28;20041;-63
2021/09/13 10:45:12;;;;;;;5.47;3.20;;;18.40;96.20;;;;;;5066057;28;20041;-62
2021/09/13 10:47:39;;;;;;;6.35;3.88;;;18.40;97.20;;;;;;5055858;28;20055;-62
2021/09/13 10:50:34;;;;;;;8.25;3.92;;;18.20;96.60;;;;;;5046236;28;20045;-62
2021/09/13 10:53:03;;;;;;;5.10;3.40;;;18.10;96.40;;;;;;5046442;28;20040;-62
2021/09/13 10:55:38;;;;;;;7.28;4.13;;;18.00;97.00;;;;;;5045842;28;20469;-62
2021/09/13 10:58:16;;;;;;;6.32;2.95;;;18.10;97.10;;;;;;5052319;28;20036;-63
2021/09/13 11:00:42;;;;;;;3.72;2.42;;;18.00;97.80;;;;;;5063438;28;20039;-63
2021/09/13 11:03:26;;;;;;;;;;;18.10;96.10;;;;;;5066568;28;20036;-63
2021/09/13 11:06:13;;;;;;;4.30;2.15;;;18.10;93.70;;;;;;5060980;28;19930;-62
2021/09/13 11:08:53;;;;;;;7.18;2.72;;;18.30;95.40;;;;;;5065881;28;20125;-62
2021/09/13 11:11:22;;;;;;;3.20;2.17;;;18.40;95.90;;;;;;5062452;28;20040;-62
2021/09/13 11:14:03;;;;;;;4.18;2.50;;;18.50;94.50;;;;;;5062563;28;20120;-62
2021/09/13 11:16:31;;;;;;;4.97;2.85;;;18.50;94.90;;;;;;5062164;28;20052;-62
2021/09/13 11:18:57;;;;;;;4.95;2.65;;;18.50;97.00;;;;;;5059307;28;20111;-62
2021/09/13 11:21:30;;;;;;;2.95;2.10;;;18.70;96.00;;;;;;5055239;28;20561;-63
2021/09/13 11:24:02;;;;;;;4.28;2.47;;;18.70;95.80;;;;;;5065077;28;20052;-62
2021/09/13 11:26:51;;;;;;;4.70;2.35;;;18.60;94.30;;;;;;5063713;28;20063;-60
2021/09/13 11:29:20;;;;;;;8.52;2.05;;;18.60;94.30;;;;;;5059839;28;20041;-62
2021/09/13 11:31:53;;;;;;;5.93;2.70;;;18.80;95.50;;;;;;5064778;28;20688;-62
2021/09/13 11:34:24;;;;;;;5.80;2.90;;;18.70;94.50;;;;;;5064734;28;20036;-62
2021/09/13 11:37:03;;;;;;;2.90;2.20;;;18.70;94.60;;;;;;5065475;28;20033;-61
2021/09/13 11:39:50;;;;;;;6.07;2.85;;;18.70;95.30;;;;;;5065596;28;20045;-61
2021/09/13 11:42:22;;;;;;;3.50;2.33;;;18.70;95.70;;;;;;5065405;28;20100;-62
2021/09/13 11:44:57;;;;;;;4.10;2.92;;;18.80;94.80;;;;;;5066731;28;20350;-62
2021/09/13 11:47:25;;;;;;;4.13;2.53;;;18.70;93.90;;;;;;5064869;28;20052;-62
2021/09/13 11:49:53;;;;;;;6.30;3.10;;;18.60;94.90;;;;;;5066153;28;20079;-62
2021/09/13 11:52:29;;;;;;;5.85;3.15;;;18.80;96.20;;;;;;5064482;28;20044;-62
2021/09/13 11:55:03;;;;;;;;;;;18.80;95.00;;;;;;5065760;28;20048;-62
2021/09/13 11:57:41;;;;;;;5.53;3.75;;;18.90;95.10;;;;;;5065038;28;19916;-62
2021/09/13 12:00:12;;;;;;;5.55;2.90;;;19.00;95.90;;;;;;5045121;28;20111;-62
2021/09/13 12:02:40;;;;;;;4.30;3.10;;;19.00;95.50;;;;;;5063212;28;20703;-62
2021/09/13 12:05:28;;;;;;;6.07;3.28;;;19.10;94.10;;;;;;5065107;28;20036;-62
2021/09/13 12:07:56;;;;;;;4.63;3.10;;;19.20;94.30;;;;;;5064676;28;20048;-61
2021/09/13 12:10:27;;;;;;;4.30;3.20;;;19.30;95.30;;;;;;5065129;28;20398;-61
2021/09/13 12:12:54;;;;;;;4.65;3.38;;;19.30;94.80;;;;;;5065148;28;20529;-60
2021/09/13 12:15:30;;;;;;;7.32;3.58;;;19.00;94.90;;;;;;5068962;28;20477;-61
2021/09/13 12:17:56;;;;;;;5.27;3.20;;;18.80;94.60;;;;;;5069109;28;20044;-61
2021/09/13 12:20:29;;;;;;;6.75;4.18;;;18.70;95.10;;;;;;5069014;28;20041;-61
2021/09/13 12:23:03;;;;;;;4.57;3.60;;;18.70;94.40;;;;;;5069039;28;20083;-61
2021/09/13 12:25:41;;;;;;;6.53;3.38;;;18.80;96.20;;;;;;5068621;28;20068;-61
2021/09/13 12:28:07;;;;;;;4.03;3.25;;;19.00;96.20;;;;;;5068269;28;20063;-62
2021/09/13 12:30:35;;;;;;;5.63;3.53;;;18.80;95.60;;;;;;5068255;28;20094;-61
2021/09/13 12:33:05;;;;;;;8.60;4.30;;;18.70;96.40;;;;;;5068770;28;20052;-62
2021/09/13 12:35:46;;;;;;;5.25;4.30;;;18.60;97.00;;;;;;5068539;28;20051;-61
2021/09/13 12:38:15;;;;;;;8.65;5.65;;;18.50;96.60;;;;;;5068297;28;20036;-62
2021/09/13 12:40:47;;;;;;;6.38;4.63;;;18.40;97.70;;;;;;5068083;28;20037;-63
2021/09/13 12:43:18;;;;;;;8.05;4.90;;;18.30;97.90;;;;;;5068900;28;20047;-62
2021/09/13 12:45:43;;;;;;;10.70;4.93;;;18.30;98.60;;;;;;5063484;28;20037;-61
2021/09/13 12:48:09;;;;;;;;;;;18.30;97.20;;;;;;5048477;28;20044;-61
2021/09/13 12:50:36;;;;;;;;;;;18.20;97.60;;;;;;5049470;28;20004;-61
2021/09/13 12:53:06;;;;;;;;;;;18.20;98.60;;;;;;5049335;28;19916;-62
2021/09/13 12:55:37;;;;;;;;;;;18.20;98.40;;;;;;5049705;28;19916;-61
2021/09/13 12:58:21;;;;;;;;;;;18.10;97.80;;;;;;5046114;28;20404;-61
2021/09/13 13:00:46;;;;;;;;;;;18.30;98.80;;;;;;5048270;28;19917;-61
2021/09/13 13:03:13;;;;;;;;;;;18.40;99.00;;;;;;5049328;28;19917;-61
2021/09/13 13:05:41;;;;;;;;;;;18.40;98.50;;;;;;5047996;28;19921;-61
2021/09/13 13:08:07;;;;;;;;;;;18.40;98.70;;;;;;5049127;28;19970;-61
2021/09/13 13:10:33;;;;;;;;;;;18.30;98.60;;;;;;5048424;28;19916;-61
2021/09/13 13:12:59;;;;;;;;;;;18.20;98.80;;;;;;5048839;28;19990;-62
2021/09/13 13:15:24;;;;;;;;;;;18.20;99.10;;;;;;5049108;28;20338;-62